sensor_id;sensor_type;location;lat;lon;timestamp;P1;durP1;ratioP1;P2;durP2;ratioP2
36315;SDS011;22343;50.820;2.666;2023-03-01T00:01:39;25.80;;;19.17;;
36315;SDS011;22343;50.820;2.666;2023-03-01T00:04:24;21.67;;;15.57;;
36315;SDS011;22343;50.820;2.666;2023-03-01T00:07:08;21.17;;;13.87;;
36315;SDS011;22343;50.820;2.666;2023-03-01T00:09:53;18.27;;;12.57;;
36315;SDS011;22343;50.820;2.666;2023-03-01T00:12:37;16.10;;;12.13;;
36315;SDS011;22343;50.820;2.666;2023-03-01T00:15:22;16.33;;;12.50;;
36315;SDS011;22343;50.820;2.666;2023-03-01T00:18:06;19.10;;;13.43;;
36315;SDS011;22343;50.820;2.666;2023-03-01T00:20:51;16.87;;;12.90;;
36315;SDS011;22343;50.820;2.666;2023-03-01T00:23:37;17.77;;;13.30;;
36315;SDS011;22343;50.820;2.666;2023-03-01T00:26:22;19.17;;;13.53;;
36315;SDS011;22343;50.820;2.666;2023-03-01T00:29:08;21.53;;;13.53;;
36315;SDS011;22343;50.820;2.666;2023-03-01T00:31:52;19.00;;;13.57;;
36315;SDS011;22343;50.820;2.666;2023-03-01T00:34:36;18.90;;;14.23;;
36315;SDS011;22343;50.820;2.666;2023-03-01T00:37:21;20.00;;;13.93;;
36315;SDS011;22343;50.820;2.666;2023-03-01T00:40:05;25.47;;;15.83;;
36315;SDS011;22343;50.820;2.666;2023-03-01T00:42:51;21.20;;;14.10;;
36315;SDS011;22343;50.820;2.666;2023-03-01T00:45:35;21.40;;;13.53;;
36315;SDS011;22343;50.820;2.666;2023-03-01T00:48:19;18.97;;;12.97;;
36315;SDS011;22343;50.820;2.666;2023-03-01T00:51:07;18.27;;;13.57;;
36315;SDS011;22343;50.820;2.666;2023-03-01T00:54:01;17.20;;;12.83;;
36315;SDS011;22343;50.820;2.666;2023-03-01T00:56:46;17.27;;;12.53;;
36315;SDS011;22343;50.820;2.666;2023-03-01T00:59:30;18.30;;;13.10;;
36315;SDS011;22343;50.820;2.666;2023-03-01T01:02:14;19.10;;;13.37;;
36315;SDS011;22343;50.820;2.666;2023-03-01T01:04:59;18.03;;;13.33;;
36315;SDS011;22343;50.820;2.666;2023-03-01T01:07:43;17.33;;;12.50;;
36315;SDS011;22343;50.820;2.666;2023-03-01T01:10:28;18.73;;;12.73;;
36315;SDS011;22343;50.820;2.666;2023-03-01T01:13:12;15.37;;;11.23;;
36315;SDS011;22343;50.820;2.666;2023-03-01T01:16:00;18.17;;;12.13;;
36315;SDS011;22343;50.820;2.666;2023-03-01T01:18:45;16.07;;;11.73;;
36315;SDS011;22343;50.820;2.666;2023-03-01T01:21:30;15.20;;;11.13;;
36315;SDS011;22343;50.820;2.666;2023-03-01T01:24:15;15.90;;;10.90;;
36315;SDS011;22343;50.820;2.666;2023-03-01T01:26:59;14.10;;;10.67;;
36315;SDS011;22343;50.820;2.666;2023-03-01T01:29:44;13.47;;;10.23;;
36315;SDS011;22343;50.820;2.666;2023-03-01T01:32:28;18.13;;;10.90;;
36315;SDS011;22343;50.820;2.666;2023-03-01T01:35:13;15.63;;;10.00;;
36315;SDS011;22343;50.820;2.666;2023-03-01T01:37:57;11.23;;;9.50;;
36315;SDS011;22343;50.820;2.666;2023-03-01T01:40:45;14.13;;;10.27;;
36315;SDS011;22343;50.820;2.666;2023-03-01T01:43:33;20.97;;;10.47;;
36315;SDS011;22343;50.820;2.666;2023-03-01T01:46:21;13.90;;;10.27;;
36315;SDS011;22343;50.820;2.666;2023-03-01T01:52:14;18.43;;;11.00;;
36315;SDS011;22343;50.820;2.666;2023-03-01T01:57:51;15.87;;;10.90;;
36315;SDS011;22343;50.820;2.666;2023-03-01T02:00:38;15.27;;;10.73;;
36315;SDS011;22343;50.820;2.666;2023-03-01T02:03:27;16.20;;;11.00;;
36315;SDS011;22343;50.820;2.666;2023-03-01T02:09:13;15.93;;;11.37;;
36315;SDS011;22343;50.820;2.666;2023-03-01T02:11:58;21.27;;;12.47;;
36315;SDS011;22343;50.820;2.666;2023-03-01T02:14:43;25.33;;;13.63;;
36315;SDS011;22343;50.820;2.666;2023-03-01T02:17:27;21.20;;;13.57;;
36315;SDS011;22343;50.820;2.666;2023-03-01T02:20:18;17.10;;;11.97;;
36315;SDS011;22343;50.820;2.666;2023-03-01T02:23:17;17.33;;;12.50;;
36315;SDS011;22343;50.820;2.666;2023-03-01T02:26:15;21.23;;;13.60;;
36315;SDS011;22343;50.820;2.666;2023-03-01T02:29:03;18.67;;;12.73;;
36315;SDS011;22343;50.820;2.666;2023-03-01T02:31:49;17.90;;;12.03;;
36315;SDS011;22343;50.820;2.666;2023-03-01T02:34:35;20.33;;;11.83;;
36315;SDS011;22343;50.820;2.666;2023-03-01T02:37:19;18.50;;;12.40;;
36315;SDS011;22343;50.820;2.666;2023-03-01T02:40:09;17.40;;;12.20;;
36315;SDS011;22343;50.820;2.666;2023-03-01T02:42:56;23.90;;;14.30;;
36315;SDS011;22343;50.820;2.666;2023-03-01T02:45:49;19.03;;;13.47;;
36315;SDS011;22343;50.820;2.666;2023-03-01T02:48:41;20.33;;;13.60;;
36315;SDS011;22343;50.820;2.666;2023-03-01T02:51:40;19.40;;;13.20;;
36315;SDS011;22343;50.820;2.666;2023-03-01T02:54:31;18.70;;;12.77;;
36315;SDS011;22343;50.820;2.666;2023-03-01T02:57:21;17.57;;;12.47;;
36315;SDS011;22343;50.820;2.666;2023-03-01T03:00:07;17.43;;;12.27;;
36315;SDS011;22343;50.820;2.666;2023-03-01T03:03:03;19.83;;;14.27;;
36315;SDS011;22343;50.820;2.666;2023-03-01T03:05:47;19.80;;;13.63;;
36315;SDS011;22343;50.820;2.666;2023-03-01T03:08:32;19.60;;;13.57;;
36315;SDS011;22343;50.820;2.666;2023-03-01T03:11:16;20.70;;;14.10;;
36315;SDS011;22343;50.820;2.666;2023-03-01T03:14:01;19.27;;;14.60;;
36315;SDS011;22343;50.820;2.666;2023-03-01T03:16:46;18.63;;;14.87;;
36315;SDS011;22343;50.820;2.666;2023-03-01T03:19:33;19.07;;;14.20;;
36315;SDS011;22343;50.820;2.666;2023-03-01T03:22:18;18.67;;;14.83;;
36315;SDS011;22343;50.820;2.666;2023-03-01T03:25:02;22.13;;;15.47;;
36315;SDS011;22343;50.820;2.666;2023-03-01T03:27:48;20.90;;;15.97;;
36315;SDS011;22343;50.820;2.666;2023-03-01T03:30:32;22.40;;;16.43;;
36315;SDS011;22343;50.820;2.666;2023-03-01T03:33:17;20.70;;;16.27;;
36315;SDS011;22343;50.820;2.666;2023-03-01T03:36:02;20.60;;;16.47;;
36315;SDS011;22343;50.820;2.666;2023-03-01T03:38:47;24.63;;;17.67;;
36315;SDS011;22343;50.820;2.666;2023-03-01T03:41:34;24.97;;;16.77;;
36315;SDS011;22343;50.820;2.666;2023-03-01T03:44:19;22.37;;;16.27;;
36315;SDS011;22343;50.820;2.666;2023-03-01T03:47:03;23.40;;;17.13;;
36315;SDS011;22343;50.820;2.666;2023-03-01T03:49:48;26.07;;;17.83;;
36315;SDS011;22343;50.820;2.666;2023-03-01T03:52:32;21.93;;;16.93;;
36315;SDS011;22343;50.820;2.666;2023-03-01T03:55:17;22.87;;;17.53;;
36315;SDS011;22343;50.820;2.666;2023-03-01T03:58:03;21.37;;;17.37;;
36315;SDS011;22343;50.820;2.666;2023-03-01T04:00:55;25.33;;;18.70;;
36315;SDS011;22343;50.820;2.666;2023-03-01T04:03:40;21.80;;;17.43;;
36315;SDS011;22343;50.820;2.666;2023-03-01T04:06:25;21.30;;;17.57;;
36315;SDS011;22343;50.820;2.666;2023-03-01T04:09:09;23.50;;;18.03;;
36315;SDS011;22343;50.820;2.666;2023-03-01T04:11:54;24.13;;;18.37;;
36315;SDS011;22343;50.820;2.666;2023-03-01T04:14:38;25.30;;;18.47;;
36315;SDS011;22343;50.820;2.666;2023-03-01T04:17:22;23.87;;;19.30;;
36315;SDS011;22343;50.820;2.666;2023-03-01T04:20:08;22.97;;;18.93;;
36315;SDS011;22343;50.820;2.666;2023-03-01T04:23:04;24.10;;;19.73;;
36315;SDS011;22343;50.820;2.666;2023-03-01T04:26:16;26.20;;;19.20;;
36315;SDS011;22343;50.820;2.666;2023-03-01T04:29:01;23.80;;;19.83;;
36315;SDS011;22343;50.820;2.666;2023-03-01T04:31:45;31.23;;;22.27;;
36315;SDS011;22343;50.820;2.666;2023-03-01T04:34:33;29.07;;;21.60;;
36315;SDS011;22343;50.820;2.666;2023-03-01T04:37:17;25.50;;;19.77;;
36315;SDS011;22343;50.820;2.666;2023-03-01T04:40:02;24.53;;;19.10;;
36315;SDS011;22343;50.820;2.666;2023-03-01T04:43:00;27.77;;;19.53;;
36315;SDS011;22343;50.820;2.666;2023-03-01T04:45:45;23.80;;;18.47;;
36315;SDS011;22343;50.820;2.666;2023-03-01T04:48:30;24.27;;;18.73;;
36315;SDS011;22343;50.820;2.666;2023-03-01T04:51:15;23.63;;;18.17;;
36315;SDS011;22343;50.820;2.666;2023-03-01T04:54:00;24.50;;;18.87;;
36315;SDS011;22343;50.820;2.666;2023-03-01T04:56:44;24.83;;;19.37;;
36315;SDS011;22343;50.820;2.666;2023-03-01T04:59:29;25.57;;;19.50;;
36315;SDS011;22343;50.820;2.666;2023-03-01T05:02:13;25.37;;;20.63;;
36315;SDS011;22343;50.820;2.666;2023-03-01T05:04:58;28.30;;;21.00;;
36315;SDS011;22343;50.820;2.666;2023-03-01T05:07:42;29.93;;;21.97;;
36315;SDS011;22343;50.820;2.666;2023-03-01T05:10:27;28.43;;;21.00;;
36315;SDS011;22343;50.820;2.666;2023-03-01T05:13:15;34.13;;;23.77;;
36315;SDS011;22343;50.820;2.666;2023-03-01T05:16:05;30.43;;;21.30;;
36315;SDS011;22343;50.820;2.666;2023-03-01T05:18:50;27.17;;;20.80;;
36315;SDS011;22343;50.820;2.666;2023-03-01T05:21:34;27.10;;;22.20;;
36315;SDS011;22343;50.820;2.666;2023-03-01T05:24:39;34.83;;;26.33;;
36315;SDS011;22343;50.820;2.666;2023-03-01T05:27:23;28.43;;;22.97;;
36315;SDS011;22343;50.820;2.666;2023-03-01T05:30:08;29.67;;;23.10;;
36315;SDS011;22343;50.820;2.666;2023-03-01T05:32:59;27.80;;;21.43;;
36315;SDS011;22343;50.820;2.666;2023-03-01T05:35:44;27.80;;;20.07;;
36315;SDS011;22343;50.820;2.666;2023-03-01T05:38:29;35.53;;;25.63;;
36315;SDS011;22343;50.820;2.666;2023-03-01T05:41:14;33.83;;;24.70;;
36315;SDS011;22343;50.820;2.666;2023-03-01T05:44:02;50.40;;;34.97;;
36315;SDS011;22343;50.820;2.666;2023-03-01T05:46:48;29.27;;;22.67;;
36315;SDS011;22343;50.820;2.666;2023-03-01T05:49:34;29.80;;;21.17;;
36315;SDS011;22343;50.820;2.666;2023-03-01T05:52:20;25.47;;;21.47;;
36315;SDS011;22343;50.820;2.666;2023-03-01T05:55:06;30.60;;;23.27;;
36315;SDS011;22343;50.820;2.666;2023-03-01T05:57:51;28.20;;;21.47;;
36315;SDS011;22343;50.820;2.666;2023-03-01T06:00:36;24.43;;;19.97;;
36315;SDS011;22343;50.820;2.666;2023-03-01T06:03:21;24.83;;;19.80;;
36315;SDS011;22343;50.820;2.666;2023-03-01T06:06:05;24.73;;;19.40;;
36315;SDS011;22343;50.820;2.666;2023-03-01T06:08:50;26.20;;;19.63;;
36315;SDS011;22343;50.820;2.666;2023-03-01T06:11:36;28.73;;;20.43;;
36315;SDS011;22343;50.820;2.666;2023-03-01T06:14:22;24.97;;;20.13;;
36315;SDS011;22343;50.820;2.666;2023-03-01T06:17:07;28.07;;;21.50;;
36315;SDS011;22343;50.820;2.666;2023-03-01T06:19:52;28.30;;;20.70;;
36315;SDS011;22343;50.820;2.666;2023-03-01T06:22:39;27.57;;;20.33;;
36315;SDS011;22343;50.820;2.666;2023-03-01T06:25:25;29.03;;;21.03;;
36315;SDS011;22343;50.820;2.666;2023-03-01T06:28:10;25.20;;;20.83;;
36315;SDS011;22343;50.820;2.666;2023-03-01T06:30:58;31.63;;;23.00;;
36315;SDS011;22343;50.820;2.666;2023-03-01T06:33:43;31.97;;;23.27;;
36315;SDS011;22343;50.820;2.666;2023-03-01T06:36:30;29.13;;;23.37;;
36315;SDS011;22343;50.820;2.666;2023-03-01T06:39:14;29.47;;;21.77;;
36315;SDS011;22343;50.820;2.666;2023-03-01T06:41:58;32.60;;;23.77;;
36315;SDS011;22343;50.820;2.666;2023-03-01T06:44:43;33.13;;;24.53;;
36315;SDS011;22343;50.820;2.666;2023-03-01T06:47:28;33.60;;;23.97;;
36315;SDS011;22343;50.820;2.666;2023-03-01T06:50:13;31.57;;;23.73;;
36315;SDS011;22343;50.820;2.666;2023-03-01T06:52:58;30.97;;;22.40;;
36315;SDS011;22343;50.820;2.666;2023-03-01T06:55:43;33.20;;;23.43;;
36315;SDS011;22343;50.820;2.666;2023-03-01T06:58:27;36.30;;;25.77;;
36315;SDS011;22343;50.820;2.666;2023-03-01T07:01:11;36.87;;;26.77;;
36315;SDS011;22343;50.820;2.666;2023-03-01T07:03:56;30.73;;;21.80;;
36315;SDS011;22343;50.820;2.666;2023-03-01T07:06:41;29.43;;;21.57;;
36315;SDS011;22343;50.820;2.666;2023-03-01T07:09:25;31.23;;;22.43;;
36315;SDS011;22343;50.820;2.666;2023-03-01T07:12:09;35.17;;;25.57;;
36315;SDS011;22343;50.820;2.666;2023-03-01T07:15:08;38.57;;;29.97;;
36315;SDS011;22343;50.820;2.666;2023-03-01T07:17:54;34.77;;;26.10;;
36315;SDS011;22343;50.820;2.666;2023-03-01T07:20:47;34.23;;;25.00;;
36315;SDS011;22343;50.820;2.666;2023-03-01T07:23:31;35.83;;;25.63;;
36315;SDS011;22343;50.820;2.666;2023-03-01T07:26:17;36.23;;;24.10;;
36315;SDS011;22343;50.820;2.666;2023-03-01T07:29:02;34.17;;;23.63;;
36315;SDS011;22343;50.820;2.666;2023-03-01T07:31:48;31.97;;;24.20;;
36315;SDS011;22343;50.820;2.666;2023-03-01T07:34:32;37.43;;;25.87;;
36315;SDS011;22343;50.820;2.666;2023-03-01T07:37:16;115.60;;;66.23;;
36315;SDS011;22343;50.820;2.666;2023-03-01T07:40:01;135.80;;;77.17;;
36315;SDS011;22343;50.820;2.666;2023-03-01T07:42:46;125.27;;;76.47;;
36315;SDS011;22343;50.820;2.666;2023-03-01T07:45:31;61.73;;;41.13;;
36315;SDS011;22343;50.820;2.666;2023-03-01T07:48:16;37.53;;;27.07;;
36315;SDS011;22343;50.820;2.666;2023-03-01T07:51:00;25.43;;;19.17;;
36315;SDS011;22343;50.820;2.666;2023-03-01T07:53:48;25.87;;;18.13;;
36315;SDS011;22343;50.820;2.666;2023-03-01T07:56:32;25.07;;;17.70;;
36315;SDS011;22343;50.820;2.666;2023-03-01T07:59:17;23.80;;;16.57;;
36315;SDS011;22343;50.820;2.666;2023-03-01T08:02:01;23.47;;;15.93;;
36315;SDS011;22343;50.820;2.666;2023-03-01T08:04:45;24.80;;;18.47;;
36315;SDS011;22343;50.820;2.666;2023-03-01T08:07:30;25.30;;;18.07;;
36315;SDS011;22343;50.820;2.666;2023-03-01T08:10:14;23.47;;;14.93;;
36315;SDS011;22343;50.820;2.666;2023-03-01T08:12:59;24.30;;;17.67;;
36315;SDS011;22343;50.820;2.666;2023-03-01T08:15:43;22.07;;;16.07;;
36315;SDS011;22343;50.820;2.666;2023-03-01T08:21:39;20.50;;;13.87;;
36315;SDS011;22343;50.820;2.666;2023-03-01T08:24:24;19.03;;;14.53;;
36315;SDS011;22343;50.820;2.666;2023-03-01T08:27:08;18.57;;;14.07;;
36315;SDS011;22343;50.820;2.666;2023-03-01T08:29:53;18.50;;;14.30;;
36315;SDS011;22343;50.820;2.666;2023-03-01T08:32:37;19.23;;;14.47;;
36315;SDS011;22343;50.820;2.666;2023-03-01T08:35:22;20.43;;;14.33;;
36315;SDS011;22343;50.820;2.666;2023-03-01T08:38:07;22.90;;;17.20;;
36315;SDS011;22343;50.820;2.666;2023-03-01T08:40:51;17.00;;;13.23;;
36315;SDS011;22343;50.820;2.666;2023-03-01T08:43:35;20.07;;;11.47;;
36315;SDS011;22343;50.820;2.666;2023-03-01T08:46:20;21.07;;;14.73;;
36315;SDS011;22343;50.820;2.666;2023-03-01T08:49:04;16.90;;;13.10;;
36315;SDS011;22343;50.820;2.666;2023-03-01T08:51:53;17.20;;;13.23;;
36315;SDS011;22343;50.820;2.666;2023-03-01T08:55:06;20.47;;;15.03;;
36315;SDS011;22343;50.820;2.666;2023-03-01T08:57:51;16.17;;;11.23;;
36315;SDS011;22343;50.820;2.666;2023-03-01T09:00:36;17.77;;;13.67;;
36315;SDS011;22343;50.820;2.666;2023-03-01T09:03:20;19.77;;;14.07;;
36315;SDS011;22343;50.820;2.666;2023-03-01T09:06:05;18.60;;;13.57;;
36315;SDS011;22343;50.820;2.666;2023-03-01T09:08:51;13.00;;;10.33;;
36315;SDS011;22343;50.820;2.666;2023-03-01T09:11:35;17.07;;;12.23;;
36315;SDS011;22343;50.820;2.666;2023-03-01T09:14:20;15.80;;;11.17;;
36315;SDS011;22343;50.820;2.666;2023-03-01T09:17:05;18.03;;;12.83;;
36315;SDS011;22343;50.820;2.666;2023-03-01T09:19:49;13.43;;;9.57;;
36315;SDS011;22343;50.820;2.666;2023-03-01T09:22:33;14.47;;;10.97;;
36315;SDS011;22343;50.820;2.666;2023-03-01T09:25:18;14.90;;;7.87;;
36315;SDS011;22343;50.820;2.666;2023-03-01T09:28:03;12.77;;;9.37;;
36315;SDS011;22343;50.820;2.666;2023-03-01T09:30:47;12.47;;;10.20;;
36315;SDS011;22343;50.820;2.666;2023-03-01T09:33:32;12.40;;;9.23;;
36315;SDS011;22343;50.820;2.666;2023-03-01T09:36:18;13.87;;;9.27;;
36315;SDS011;22343;50.820;2.666;2023-03-01T09:39:04;13.73;;;9.40;;
36315;SDS011;22343;50.820;2.666;2023-03-01T09:42:01;11.73;;;8.53;;
36315;SDS011;22343;50.820;2.666;2023-03-01T09:44:51;12.20;;;9.03;;
36315;SDS011;22343;50.820;2.666;2023-03-01T09:47:42;12.93;;;8.53;;
36315;SDS011;22343;50.820;2.666;2023-03-01T09:50:28;12.30;;;8.00;;
36315;SDS011;22343;50.820;2.666;2023-03-01T09:53:20;11.27;;;7.97;;
36315;SDS011;22343;50.820;2.666;2023-03-01T09:56:15;15.83;;;8.43;;
36315;SDS011;22343;50.820;2.666;2023-03-01T10:01:58;9.10;;;6.80;;
36315;SDS011;22343;50.820;2.666;2023-03-01T10:04:50;9.67;;;6.57;;
36315;SDS011;22343;50.820;2.666;2023-03-01T10:10:33;6.73;;;5.23;;
36315;SDS011;22343;50.820;2.666;2023-03-01T10:16:13;5.97;;;4.20;;
36315;SDS011;22343;50.820;2.666;2023-03-01T10:19:02;7.07;;;4.87;;
36315;SDS011;22343;50.820;2.666;2023-03-01T10:21:47;7.40;;;5.23;;
36315;SDS011;22343;50.820;2.666;2023-03-01T10:24:35;5.07;;;3.63;;
36315;SDS011;22343;50.820;2.666;2023-03-01T10:27:24;5.47;;;4.53;;
36315;SDS011;22343;50.820;2.666;2023-03-01T10:30:13;5.47;;;3.70;;
36315;SDS011;22343;50.820;2.666;2023-03-01T10:33:03;5.93;;;4.17;;
36315;SDS011;22343;50.820;2.666;2023-03-01T10:35:57;5.50;;;4.00;;
36315;SDS011;22343;50.820;2.666;2023-03-01T10:41:40;7.03;;;5.93;;
36315;SDS011;22343;50.820;2.666;2023-03-01T10:44:52;7.47;;;3.87;;
36315;SDS011;22343;50.820;2.666;2023-03-01T10:47:36;5.97;;;3.67;;
36315;SDS011;22343;50.820;2.666;2023-03-01T10:50:21;5.67;;;3.53;;
36315;SDS011;22343;50.820;2.666;2023-03-01T10:56:09;6.47;;;5.07;;
36315;SDS011;22343;50.820;2.666;2023-03-01T10:58:58;7.83;;;5.47;;
36315;SDS011;22343;50.820;2.666;2023-03-01T11:01:44;8.63;;;6.27;;
36315;SDS011;22343;50.820;2.666;2023-03-01T11:04:28;7.73;;;4.37;;
36315;SDS011;22343;50.820;2.666;2023-03-01T11:07:13;11.00;;;7.53;;
36315;SDS011;22343;50.820;2.666;2023-03-01T11:09:57;6.30;;;4.40;;
36315;SDS011;22343;50.820;2.666;2023-03-01T11:12:42;5.93;;;4.37;;
36315;SDS011;22343;50.820;2.666;2023-03-01T11:15:27;6.67;;;4.80;;
36315;SDS011;22343;50.820;2.666;2023-03-01T11:18:21;6.50;;;4.97;;
36315;SDS011;22343;50.820;2.666;2023-03-01T11:21:08;7.77;;;5.63;;
36315;SDS011;22343;50.820;2.666;2023-03-01T11:23:53;7.93;;;6.40;;
36315;SDS011;22343;50.820;2.666;2023-03-01T11:26:39;6.50;;;5.00;;
36315;SDS011;22343;50.820;2.666;2023-03-01T11:29:41;8.97;;;6.30;;
36315;SDS011;22343;50.820;2.666;2023-03-01T11:32:33;7.50;;;4.80;;
36315;SDS011;22343;50.820;2.666;2023-03-01T11:35:21;8.60;;;5.97;;
36315;SDS011;22343;50.820;2.666;2023-03-01T11:38:22;5.60;;;3.43;;
36315;SDS011;22343;50.820;2.666;2023-03-01T11:44:11;8.47;;;5.80;;
36315;SDS011;22343;50.820;2.666;2023-03-01T11:50:16;6.70;;;5.40;;
36315;SDS011;22343;50.820;2.666;2023-03-01T12:11:45;7.87;;;5.90;;
36315;SDS011;22343;50.820;2.666;2023-03-01T12:17:54;7.20;;;5.73;;
36315;SDS011;22343;50.820;2.666;2023-03-01T12:20:47;8.00;;;4.73;;
36315;SDS011;22343;50.820;2.666;2023-03-01T12:33:03;8.13;;;5.97;;
36315;SDS011;22343;50.820;2.666;2023-03-01T12:48:04;6.77;;;5.77;;
36315;SDS011;22343;50.820;2.666;2023-03-01T12:51:07;8.27;;;5.63;;
36315;SDS011;22343;50.820;2.666;2023-03-01T12:53:54;7.40;;;6.33;;
36315;SDS011;22343;50.820;2.666;2023-03-01T12:56:39;9.43;;;7.00;;
36315;SDS011;22343;50.820;2.666;2023-03-01T13:02:37;8.30;;;6.40;;
36315;SDS011;22343;50.820;2.666;2023-03-01T13:08:39;6.97;;;5.43;;
36315;SDS011;22343;50.820;2.666;2023-03-01T13:11:44;8.30;;;5.93;;
36315;SDS011;22343;50.820;2.666;2023-03-01T13:17:32;8.97;;;6.77;;
36315;SDS011;22343;50.820;2.666;2023-03-01T13:20:26;7.50;;;6.13;;
36315;SDS011;22343;50.820;2.666;2023-03-01T13:26:08;6.83;;;5.27;;
36315;SDS011;22343;50.820;2.666;2023-03-01T13:28:57;7.67;;;5.50;;
36315;SDS011;22343;50.820;2.666;2023-03-01T13:34:41;6.17;;;4.60;;
36315;SDS011;22343;50.820;2.666;2023-03-01T13:37:28;6.67;;;4.43;;
36315;SDS011;22343;50.820;2.666;2023-03-01T13:43:34;8.87;;;6.07;;
36315;SDS011;22343;50.820;2.666;2023-03-01T13:46:20;8.13;;;5.73;;
36315;SDS011;22343;50.820;2.666;2023-03-01T13:49:09;5.30;;;3.83;;
36315;SDS011;22343;50.820;2.666;2023-03-01T13:51:57;9.17;;;6.80;;
36315;SDS011;22343;50.820;2.666;2023-03-01T13:54:41;7.80;;;5.50;;
36315;SDS011;22343;50.820;2.666;2023-03-01T13:57:28;6.43;;;4.83;;
36315;SDS011;22343;50.820;2.666;2023-03-01T14:00:35;7.83;;;6.60;;
36315;SDS011;22343;50.820;2.666;2023-03-01T14:03:22;8.30;;;6.20;;
36315;SDS011;22343;50.820;2.666;2023-03-01T14:06:07;7.77;;;5.60;;
36315;SDS011;22343;50.820;2.666;2023-03-01T14:09:05;8.87;;;6.47;;
36315;SDS011;22343;50.820;2.666;2023-03-01T14:20:41;7.23;;;5.03;;
36315;SDS011;22343;50.820;2.666;2023-03-01T14:23:26;9.23;;;6.97;;
36315;SDS011;22343;50.820;2.666;2023-03-01T14:26:11;9.50;;;7.33;;
36315;SDS011;22343;50.820;2.666;2023-03-01T14:28:56;10.47;;;6.67;;
36315;SDS011;22343;50.820;2.666;2023-03-01T14:31:41;7.80;;;6.60;;
36315;SDS011;22343;50.820;2.666;2023-03-01T14:34:26;9.07;;;6.47;;
36315;SDS011;22343;50.820;2.666;2023-03-01T14:40:04;6.00;;;4.53;;
36315;SDS011;22343;50.820;2.666;2023-03-01T14:42:49;5.50;;;4.63;;
36315;SDS011;22343;50.820;2.666;2023-03-01T14:45:35;8.67;;;6.50;;
36315;SDS011;22343;50.820;2.666;2023-03-01T14:48:19;6.93;;;5.43;;
36315;SDS011;22343;50.820;2.666;2023-03-01T14:51:04;8.40;;;6.57;;
36315;SDS011;22343;50.820;2.666;2023-03-01T14:53:49;7.37;;;5.80;;
36315;SDS011;22343;50.820;2.666;2023-03-01T14:56:43;6.87;;;5.60;;
36315;SDS011;22343;50.820;2.666;2023-03-01T14:59:29;7.00;;;5.70;;
36315;SDS011;22343;50.820;2.666;2023-03-01T15:02:17;9.07;;;7.20;;
36315;SDS011;22343;50.820;2.666;2023-03-01T15:05:03;8.97;;;6.87;;
36315;SDS011;22343;50.820;2.666;2023-03-01T15:07:49;7.23;;;5.77;;
36315;SDS011;22343;50.820;2.666;2023-03-01T15:10:35;9.83;;;6.93;;
36315;SDS011;22343;50.820;2.666;2023-03-01T15:13:24;8.43;;;6.33;;
36315;SDS011;22343;50.820;2.666;2023-03-01T15:16:10;8.37;;;6.13;;
36315;SDS011;22343;50.820;2.666;2023-03-01T15:19:00;8.30;;;6.77;;
36315;SDS011;22343;50.820;2.666;2023-03-01T15:21:48;9.80;;;7.20;;
36315;SDS011;22343;50.820;2.666;2023-03-01T15:24:33;8.70;;;6.93;;
36315;SDS011;22343;50.820;2.666;2023-03-01T15:27:21;8.67;;;6.80;;
36315;SDS011;22343;50.820;2.666;2023-03-01T15:30:13;6.93;;;5.50;;
36315;SDS011;22343;50.820;2.666;2023-03-01T15:36:30;5.43;;;4.00;;
36315;SDS011;22343;50.820;2.666;2023-03-01T15:48:01;11.37;;;6.77;;
36315;SDS011;22343;50.820;2.666;2023-03-01T15:50:53;7.83;;;5.33;;
36315;SDS011;22343;50.820;2.666;2023-03-01T15:53:38;8.30;;;6.90;;
36315;SDS011;22343;50.820;2.666;2023-03-01T15:56:23;9.47;;;6.63;;
36315;SDS011;22343;50.820;2.666;2023-03-01T15:59:09;12.93;;;7.57;;
36315;SDS011;22343;50.820;2.666;2023-03-01T16:01:55;8.63;;;7.10;;
36315;SDS011;22343;50.820;2.666;2023-03-01T16:04:40;8.20;;;6.47;;
36315;SDS011;22343;50.820;2.666;2023-03-01T16:07:24;9.80;;;7.83;;
36315;SDS011;22343;50.820;2.666;2023-03-01T16:10:11;10.00;;;7.33;;
36315;SDS011;22343;50.820;2.666;2023-03-01T16:12:55;9.47;;;7.97;;
36315;SDS011;22343;50.820;2.666;2023-03-01T16:15:40;7.43;;;5.77;;
36315;SDS011;22343;50.820;2.666;2023-03-01T16:18:25;10.10;;;7.90;;
36315;SDS011;22343;50.820;2.666;2023-03-01T16:21:27;11.63;;;8.33;;
36315;SDS011;22343;50.820;2.666;2023-03-01T16:24:12;9.27;;;7.53;;
36315;SDS011;22343;50.820;2.666;2023-03-01T16:26:57;11.60;;;8.10;;
36315;SDS011;22343;50.820;2.666;2023-03-01T16:29:41;9.90;;;8.30;;
36315;SDS011;22343;50.820;2.666;2023-03-01T16:32:25;8.43;;;7.13;;
36315;SDS011;22343;50.820;2.666;2023-03-01T16:35:11;11.40;;;8.87;;
36315;SDS011;22343;50.820;2.666;2023-03-01T16:37:56;13.50;;;10.40;;
36315;SDS011;22343;50.820;2.666;2023-03-01T16:40:47;11.33;;;6.93;;
36315;SDS011;22343;50.820;2.666;2023-03-01T16:43:35;14.70;;;10.73;;
36315;SDS011;22343;50.820;2.666;2023-03-01T16:46:21;11.27;;;9.07;;
36315;SDS011;22343;50.820;2.666;2023-03-01T16:49:08;9.80;;;7.40;;
36315;SDS011;22343;50.820;2.666;2023-03-01T16:51:55;9.70;;;6.90;;
36315;SDS011;22343;50.820;2.666;2023-03-01T16:54:39;9.23;;;5.90;;
36315;SDS011;22343;50.820;2.666;2023-03-01T16:57:24;9.90;;;7.70;;
36315;SDS011;22343;50.820;2.666;2023-03-01T17:00:09;11.43;;;7.80;;
36315;SDS011;22343;50.820;2.666;2023-03-01T17:02:54;11.50;;;7.43;;
36315;SDS011;22343;50.820;2.666;2023-03-01T17:05:40;9.80;;;8.00;;
36315;SDS011;22343;50.820;2.666;2023-03-01T17:08:24;10.53;;;8.30;;
36315;SDS011;22343;50.820;2.666;2023-03-01T17:11:09;12.90;;;9.27;;
36315;SDS011;22343;50.820;2.666;2023-03-01T17:13:59;19.00;;;11.30;;
36315;SDS011;22343;50.820;2.666;2023-03-01T17:16:43;16.20;;;10.97;;
36315;SDS011;22343;50.820;2.666;2023-03-01T17:19:29;18.20;;;12.47;;
36315;SDS011;22343;50.820;2.666;2023-03-01T17:22:13;17.27;;;11.83;;
36315;SDS011;22343;50.820;2.666;2023-03-01T17:24:57;20.23;;;14.00;;
36315;SDS011;22343;50.820;2.666;2023-03-01T17:27:42;18.47;;;12.63;;
36315;SDS011;22343;50.820;2.666;2023-03-01T17:30:26;20.97;;;13.63;;
36315;SDS011;22343;50.820;2.666;2023-03-01T17:33:10;21.13;;;13.90;;
36315;SDS011;22343;50.820;2.666;2023-03-01T17:35:55;20.93;;;13.80;;
36315;SDS011;22343;50.820;2.666;2023-03-01T17:38:40;20.23;;;13.20;;
36315;SDS011;22343;50.820;2.666;2023-03-01T17:41:24;20.13;;;13.00;;
36315;SDS011;22343;50.820;2.666;2023-03-01T17:44:08;21.33;;;12.97;;
36315;SDS011;22343;50.820;2.666;2023-03-01T17:46:53;21.80;;;12.93;;
36315;SDS011;22343;50.820;2.666;2023-03-01T17:49:37;19.87;;;13.30;;
36315;SDS011;22343;50.820;2.666;2023-03-01T17:52:21;23.10;;;13.30;;
36315;SDS011;22343;50.820;2.666;2023-03-01T17:55:06;20.93;;;13.23;;
36315;SDS011;22343;50.820;2.666;2023-03-01T17:57:51;20.03;;;14.10;;
36315;SDS011;22343;50.820;2.666;2023-03-01T18:00:36;20.83;;;12.70;;
36315;SDS011;22343;50.820;2.666;2023-03-01T18:03:21;20.13;;;13.60;;
36315;SDS011;22343;50.820;2.666;2023-03-01T18:06:09;20.90;;;14.00;;
36315;SDS011;22343;50.820;2.666;2023-03-01T18:09:01;20.10;;;13.67;;
36315;SDS011;22343;50.820;2.666;2023-03-01T18:11:46;21.70;;;13.83;;
36315;SDS011;22343;50.820;2.666;2023-03-01T18:14:30;19.83;;;13.53;;
36315;SDS011;22343;50.820;2.666;2023-03-01T18:17:16;22.27;;;14.43;;
36315;SDS011;22343;50.820;2.666;2023-03-01T18:20:01;21.30;;;14.23;;
36315;SDS011;22343;50.820;2.666;2023-03-01T18:22:46;22.07;;;14.43;;
36315;SDS011;22343;50.820;2.666;2023-03-01T18:25:30;22.10;;;13.57;;